PAKT/KTN METAR and TAF weather

Enter ICAO airport designator
Station Type Date Time Source
PAKT METAR 2020/10/20 17:53 UTC NOAA

PAKT 201753Z 14003KT 10SM FEW010 SCT110 05/05 A3012 RMK AO2 SLP200 HARBOR WIND VRB03KT 60005 T00500050 10050 20028 58002


Station Type Date Time Source
PAKT Decoded METAR 2020/10/20 17:53 UTC NOAA

KETCHIKAN INTERNATIONAL AIRPORT , AK, United States (PAKT) 55-21N 131-43W 25M
Oct 20, 2020 - 01:53 PM EDT / 2020.10.20 1753 UTC
Wind: from the SE (140 degrees) at 3 MPH (3 KT):0
Visibility: 10 mile(s):0
Sky conditions: partly cloudy
Temperature: 41.0 F (5.0 C)
Dew Point: 41.0 F (5.0 C)
Relative Humidity: 100%
Pressure (altimeter): 30.12 in. Hg (1019 hPa)
Pressure tendency: 0.01 inches (0.2 hPa) lower than three hours ago
ob: PAKT 201753Z 14003KT 10SM FEW010 SCT110 05/05 A3012 RMK AO2 SLP200 HARBOR WIND VRB03KT 60005 T00500050 10050 20028 58002
cycle: 18

Station Type Date Time Source
PAKT TAF 2020/10/20 18:36 UTC NOAA

TAF PAKT 201735Z 2018/2118 13003KT P6SM SCT050 BKN100
FM210600 31005KT P6SM SCT025 BKN050

Example: see airport list